Time;durP1;ratioP1;P1;durP2;ratioP2;P2;SDS_P1;SDS_P2;PMS_P1;PMS_P2;Temp;Humidity;BMP_temperature;BMP_pressure;BME280_temperature;BME280_humidity;BME280_pressure;Samples;Min_cycle;Max_cycle;Signal;HPM_P1;HPM_P2
2021/09/19 00:01:09;;;;;;;4.88;3.15;;;15.90;99.90;;;;;;5053580;28;20074;-85
2021/09/19 00:03:35;;;;;;;4.57;2.60;;;15.90;99.90;;;;;;5072260;28;20032;-86
2021/09/19 00:06:00;;;;;;;5.95;3.10;;;15.90;99.90;;;;;;5054371;28;20509;-86
2021/09/19 00:08:27;;;;;;;4.55;2.90;;;15.90;99.90;;;;;;5054136;28;20032;-86
2021/09/19 00:10:53;;;;;;;5.68;3.13;;;15.90;99.90;;;;;;5053625;28;20024;-86
2021/09/19 00:13:19;;;;;;;4.18;2.50;;;15.90;99.90;;;;;;5072121;28;20219;-86
2021/09/19 00:15:45;;;;;;;4.07;2.67;;;15.90;99.90;;;;;;5072200;28;20024;-86
2021/09/19 00:18:11;;;;;;;6.13;3.28;;;15.90;99.90;;;;;;5054081;28;20029;-86
2021/09/19 00:20:39;;;;;;;6.97;3.03;;;15.80;99.90;;;;;;5053584;28;20027;-86
2021/09/19 00:23:05;;;;;;;4.03;2.78;;;15.90;99.90;;;;;;5054037;28;20025;-86
2021/09/19 00:25:31;;;;;;;4.72;2.75;;;15.80;99.90;;;;;;5071910;28;20103;-86
2021/09/19 00:27:57;;;;;;;4.13;2.83;;;15.80;99.90;;;;;;5053801;28;20111;-86
2021/09/19 00:30:22;;;;;;;4.50;2.90;;;15.80;99.90;;;;;;5053434;28;20056;-86
2021/09/19 00:32:48;;;;;;;4.95;3.10;;;15.90;99.90;;;;;;5054049;28;20441;-85
2021/09/19 00:35:13;;;;;;;4.28;2.83;;;15.80;99.90;;;;;;5053945;28;20063;-86
2021/09/19 00:37:39;;;;;;;5.28;2.88;;;15.80;99.90;;;;;;5053629;28;20120;-86
2021/09/19 00:40:06;;;;;;;4.38;2.53;;;15.70;99.90;;;;;;5053270;28;20028;-86
2021/09/19 00:42:31;;;;;;;4.78;2.75;;;15.70;99.90;;;;;;5071752;28;20485;-86
2021/09/19 00:44:59;;;;;;;4.65;2.70;;;15.70;99.90;;;;;;5054001;28;20111;-85
2021/09/19 00:47:24;;;;;;;5.07;3.35;;;15.70;99.90;;;;;;5053705;28;20054;-86
2021/09/19 00:49:50;;;;;;;4.65;3.08;;;15.70;99.90;;;;;;5053115;28;20033;-86
2021/09/19 00:52:17;;;;;;;6.03;3.22;;;15.70;99.90;;;;;;5055176;28;20031;-86
2021/09/19 00:54:44;;;;;;;4.85;2.63;;;15.70;99.90;;;;;;5075632;28;20021;-85
2021/09/19 00:57:12;;;;;;;4.57;2.72;;;15.70;99.90;;;;;;5057759;28;20021;-86
2021/09/19 00:59:39;;;;;;;5.03;2.90;;;15.70;99.90;;;;;;5056861;28;20017;-86
2021/09/19 01:02:05;;;;;;;5.18;2.72;;;15.70;99.90;;;;;;5057505;28;20068;-86
2021/09/19 01:04:31;;;;;;;4.50;2.88;;;15.70;99.90;;;;;;5057496;28;20067;-85
2021/09/19 01:06:56;;;;;;;4.65;2.65;;;15.70;99.90;;;;;;5075275;28;20043;-85
2021/09/19 01:09:23;;;;;;;3.67;2.60;;;15.70;99.90;;;;;;5056907;28;20024;-86
2021/09/19 01:11:49;;;;;;;7.13;2.70;;;15.60;99.90;;;;;;5057287;28;20383;-85
2021/09/19 01:14:16;;;;;;;4.25;2.55;;;15.60;99.90;;;;;;5057337;28;20434;-85
2021/09/19 01:16:43;;;;;;;3.20;2.30;;;15.60;99.90;;;;;;5057201;28;20031;-86
2021/09/19 01:19:17;;;;;;;5.75;2.80;;;15.60;99.90;;;;;;5056657;28;20016;-85
2021/09/19 01:21:44;;;;;;;3.60;2.40;;;15.50;99.90;;;;;;5075102;28;20109;-86
2021/09/19 01:24:09;;;;;;;4.35;2.60;;;15.50;99.90;;;;;;5074988;28;20025;-86
2021/09/19 01:26:35;;;;;;;5.97;2.70;;;15.50;99.90;;;;;;5057118;28;20115;-85
2021/09/19 01:29:01;;;;;;;3.45;2.35;;;15.50;99.90;;;;;;5056442;28;20167;-86
2021/09/19 01:31:28;;;;;;;4.43;2.30;;;15.50;99.90;;;;;;5074967;28;20032;-85
2021/09/19 01:33:54;;;;;;;4.10;2.80;;;15.50;99.90;;;;;;5074776;28;20024;-86
2021/09/19 01:36:20;;;;;;;4.03;2.60;;;15.50;99.90;;;;;;5056824;28;20612;-86
2021/09/19 01:38:46;;;;;;;5.72;3.05;;;15.50;99.90;;;;;;5074656;28;20032;-86
2021/09/19 01:41:20;;;;;;;6.97;3.33;;;15.50;99.90;;;;;;5074238;28;20030;-86
2021/09/19 01:43:46;;;;;;;4.47;2.60;;;15.50;99.90;;;;;;5056785;28;20385;-86
2021/09/19 01:46:12;;;;;;;6.82;3.45;;;15.50;99.90;;;;;;5074651;28;20040;-86
2021/09/19 01:48:39;;;;;;;6.05;2.83;;;15.50;99.90;;;;;;5056587;28;20042;-85
2021/09/19 01:51:06;;;;;;;6.63;3.63;;;15.50;99.90;;;;;;5074458;28;20024;-86
2021/09/19 01:53:33;;;;;;;8.50;3.65;;;15.50;99.90;;;;;;5074754;28;20107;-85
2021/09/19 01:55:59;;;;;;;5.35;3.40;;;15.40;99.90;;;;;;5074495;28;20018;-85
2021/09/19 01:58:25;;;;;;;5.28;3.00;;;15.40;99.90;;;;;;5074393;28;20031;-85
2021/09/19 02:00:55;;;;;;;4.60;3.13;;;15.40;99.90;;;;;;5055879;28;20066;-86
2021/09/19 02:03:21;;;;;;;4.85;3.00;;;15.40;99.90;;;;;;5055784;28;20124;-86
2021/09/19 02:05:47;;;;;;;6.38;3.13;;;15.40;99.90;;;;;;5074204;28;20099;-85
2021/09/19 02:08:12;;;;;;;7.15;3.42;;;15.40;99.90;;;;;;5073977;28;20541;-86
2021/09/19 02:10:38;;;;;;;6.32;3.10;;;15.40;99.90;;;;;;5054607;28;20051;-85
2021/09/19 02:13:03;;;;;;;5.38;3.20;;;15.30;99.90;;;;;;5055726;28;20021;-86
2021/09/19 02:15:29;;;;;;;5.25;2.97;;;15.30;99.90;;;;;;5056072;28;20477;-85
2021/09/19 02:17:55;;;;;;;6.47;2.80;;;15.30;99.90;;;;;;5073988;28;20031;-85
2021/09/19 02:20:21;;;;;;;4.50;3.20;;;15.30;99.90;;;;;;5055626;28;20032;-85
2021/09/19 02:22:46;;;;;;;6.00;3.28;;;15.30;99.90;;;;;;5055888;28;20489;-85
2021/09/19 02:25:13;;;;;;;7.05;3.33;;;15.20;99.90;;;;;;5074015;28;20390;-85
2021/09/19 02:27:39;;;;;;;5.50;2.88;;;15.20;99.90;;;;;;5055855;28;20025;-85
2021/09/19 02:30:07;;;;;;;4.72;3.08;;;15.10;99.90;;;;;;5055280;28;20031;-85
2021/09/19 02:32:33;;;;;;;5.20;3.30;;;15.20;99.90;;;;;;5055415;28;20463;-85
2021/09/19 02:34:58;;;;;;;6.90;3.38;;;15.10;99.90;;;;;;5073828;28;20060;-86
2021/09/19 02:37:25;;;;;;;5.50;3.42;;;15.10;99.90;;;;;;5073785;28;20297;-86
2021/09/19 02:39:50;;;;;;;7.45;3.17;;;15.10;99.90;;;;;;5072967;28;20497;-86
2021/09/19 02:42:16;;;;;;;4.90;2.95;;;15.10;99.90;;;;;;5073636;28;20027;-86
2021/09/19 02:44:42;;;;;;;6.05;3.63;;;15.10;99.90;;;;;;5055613;28;20077;-86
2021/09/19 02:47:08;;;;;;;5.10;3.03;;;15.00;99.90;;;;;;5055566;28;20028;-86
2021/09/19 02:49:33;;;;;;;7.32;3.00;;;15.00;99.90;;;;;;5054986;28;20040;-85
2021/09/19 02:52:00;;;;;;;4.20;2.78;;;15.00;99.90;;;;;;5055478;28;20029;-85
2021/09/19 02:54:26;;;;;;;5.43;3.08;;;15.10;99.90;;;;;;5055582;28;20029;-85
2021/09/19 02:56:52;;;;;;;5.70;3.35;;;15.00;99.90;;;;;;5055396;28;20030;-86
2021/09/19 02:59:19;;;;;;;6.32;3.45;;;15.00;99.90;;;;;;5073147;28;20025;-86
2021/09/19 03:01:45;;;;;;;3.95;3.00;;;15.00;99.90;;;;;;5055314;28;20035;-86
2021/09/19 03:04:11;;;;;;;5.25;3.10;;;15.00;99.90;;;;;;5055298;28;20037;-86
2021/09/19 03:06:36;;;;;;;8.40;3.70;;;15.00;99.90;;;;;;5055330;28;20032;-86
2021/09/19 03:09:02;;;;;;;5.00;3.28;;;15.00;99.90;;;;;;5054569;28;20123;-85
2021/09/19 03:11:27;;;;;;;8.10;3.40;;;15.10;99.90;;;;;;5055135;28;20115;-86
2021/09/19 03:13:53;;;;;;;6.28;3.30;;;15.00;99.90;;;;;;5073325;28;20024;-86
2021/09/19 03:16:19;;;;;;;5.35;3.13;;;15.00;99.90;;;;;;5055045;28;20115;-86
2021/09/19 03:18:45;;;;;;;7.10;3.10;;;15.10;99.90;;;;;;5055216;28;20385;-85
2021/09/19 03:21:11;;;;;;;4.30;2.83;;;15.10;99.90;;;;;;5054411;28;20029;-85
2021/09/19 03:23:36;;;;;;;8.75;3.53;;;15.10;99.90;;;;;;5054961;28;20036;-85
2021/09/19 03:26:02;;;;;;;5.97;3.83;;;15.00;99.90;;;;;;5054731;28;20028;-85
2021/09/19 03:28:28;;;;;;;5.82;3.88;;;15.00;99.90;;;;;;5072467;28;20137;-85
2021/09/19 03:30:54;;;;;;;5.47;3.40;;;15.00;99.90;;;;;;5071763;28;20127;-85
2021/09/19 03:33:19;;;;;;;4.75;3.20;;;15.00;99.90;;;;;;5054792;28;20024;-85
2021/09/19 03:35:45;;;;;;;5.65;3.08;;;15.00;99.90;;;;;;5072645;28;20477;-85
2021/09/19 03:38:10;;;;;;;4.47;3.10;;;15.00;99.90;;;;;;5054604;28;20028;-85
2021/09/19 03:40:36;;;;;;;5.47;3.40;;;15.00;99.90;;;;;;5071967;28;20060;-86
2021/09/19 03:43:02;;;;;;;7.10;3.70;;;15.00;99.90;;;;;;5054474;28;20029;-85
2021/09/19 03:45:29;;;;;;;5.22;3.33;;;15.10;99.90;;;;;;5054545;28;20035;-85
2021/09/19 03:47:56;;;;;;;4.35;3.10;;;15.10;99.90;;;;;;5054273;28;20059;-86
2021/09/19 03:50:22;;;;;;;4.93;3.10;;;15.10;99.90;;;;;;5071724;28;20024;-86
2021/09/19 03:52:48;;;;;;;5.80;3.00;;;15.10;99.90;;;;;;5072233;28;20099;-85
2021/09/19 03:55:14;;;;;;;5.82;3.30;;;15.00;99.90;;;;;;5054353;28;20382;-85
2021/09/19 03:57:39;;;;;;;4.18;2.92;;;15.00;99.90;;;;;;5054180;28;20112;-86
2021/09/19 04:00:06;;;;;;;5.32;3.00;;;15.00;99.90;;;;;;5053967;28;20381;-85
2021/09/19 04:02:32;;;;;;;6.38;3.15;;;14.90;99.90;;;;;;5072053;28;20033;-86
2021/09/19 04:04:58;;;;;;;5.43;3.45;;;15.00;99.90;;;;;;5054108;28;20051;-86
2021/09/19 04:07:23;;;;;;;5.85;3.20;;;15.00;99.90;;;;;;5072118;28;20035;-86
2021/09/19 04:09:49;;;;;;;4.22;2.90;;;14.90;99.90;;;;;;5071498;28;20021;-85
2021/09/19 04:12:15;;;;;;;5.85;3.10;;;14.90;99.90;;;;;;5053867;28;20119;-85
2021/09/19 04:14:40;;;;;;;6.85;3.20;;;14.90;99.90;;;;;;5054053;28;20028;-86
2021/09/19 04:17:06;;;;;;;4.30;3.17;;;14.80;99.90;;;;;;5071977;28;20420;-85
2021/09/19 04:19:31;;;;;;;5.50;3.40;;;14.80;99.90;;;;;;5053636;28;20366;-86
2021/09/19 04:21:57;;;;;;;5.47;3.50;;;14.90;99.90;;;;;;5054022;28;20078;-85
2021/09/19 04:24:23;;;;;;;6.00;3.15;;;14.90;99.90;;;;;;5054104;28;20029;-86
2021/09/19 04:26:48;;;;;;;7.18;3.65;;;14.80;99.90;;;;;;5055648;28;20077;-85
2021/09/19 04:29:14;;;;;;;4.90;3.55;;;14.80;99.90;;;;;;5077929;28;20036;-85
2021/09/19 04:31:39;;;;;;;4.82;3.08;;;14.80;99.90;;;;;;5060603;28;20033;-85
2021/09/19 04:34:05;;;;;;;5.75;3.50;;;14.80;99.90;;;;;;5060854;28;20028;-85
2021/09/19 04:36:31;;;;;;;6.03;3.42;;;14.80;99.90;;;;;;5060660;28;20064;-85
2021/09/19 04:38:56;;;;;;;4.25;3.20;;;14.70;99.90;;;;;;5060030;28;20028;-86
2021/09/19 04:41:22;;;;;;;4.97;3.50;;;14.70;99.90;;;;;;5060432;28;20025;-85
2021/09/19 04:43:47;;;;;;;6.03;3.50;;;14.60;99.90;;;;;;5078438;28;20377;-85
2021/09/19 04:46:13;;;;;;;6.15;3.30;;;14.60;99.90;;;;;;5078481;28;20024;-85
2021/09/19 04:48:39;;;;;;;7.20;3.33;;;14.60;99.90;;;;;;5060440;28;20397;-85
2021/09/19 04:51:05;;;;;;;5.72;3.20;;;14.50;99.90;;;;;;5077765;28;20021;-85
2021/09/19 04:53:30;;;;;;;5.68;3.13;;;14.60;99.90;;;;;;5078077;28;20025;-86
2021/09/19 04:55:56;;;;;;;6.20;3.63;;;14.50;99.90;;;;;;5060414;28;20017;-85
2021/09/19 04:58:21;;;;;;;6.07;3.78;;;14.60;99.90;;;;;;5060356;28;20381;-85
2021/09/19 05:00:47;;;;;;;5.30;3.55;;;14.50;99.90;;;;;;5059886;28;20115;-86
2021/09/19 05:03:13;;;;;;;4.75;3.00;;;14.50;99.90;;;;;;5078148;28;20033;-85
2021/09/19 05:05:39;;;;;;;4.95;3.42;;;14.50;99.90;;;;;;5060218;28;20031;-85
2021/09/19 05:08:04;;;;;;;4.95;3.15;;;14.50;99.90;;;;;;5060441;28;20029;-85
2021/09/19 05:10:30;;;;;;;7.25;3.60;;;14.50;99.90;;;;;;5059513;28;20032;-85
2021/09/19 05:12:55;;;;;;;6.25;3.20;;;14.50;99.90;;;;;;5060201;28;20067;-86
2021/09/19 05:15:21;;;;;;;4.88;3.20;;;14.50;99.90;;;;;;5060308;28;20024;-85
2021/09/19 05:17:47;;;;;;;7.03;3.28;;;14.50;99.90;;;;;;5060149;28;20024;-85
2021/09/19 05:20:13;;;;;;;4.65;3.40;;;14.50;99.90;;;;;;5077572;28;20048;-85
2021/09/19 05:22:38;;;;;;;5.43;3.25;;;14.50;99.90;;;;;;5059994;28;20020;-86
2021/09/19 05:25:04;;;;;;;4.72;3.28;;;14.50;99.90;;;;;;5060163;28;20020;-85
2021/09/19 05:27:30;;;;;;;6.72;3.13;;;14.40;99.90;;;;;;5059965;28;20025;-85
2021/09/19 05:29:56;;;;;;;8.43;3.22;;;14.40;99.90;;;;;;5059514;28;20027;-85
2021/09/19 05:32:21;;;;;;;4.93;3.53;;;14.40;99.90;;;;;;5060127;28;20115;-86
2021/09/19 05:34:47;;;;;;;5.07;3.83;;;14.40;99.90;;;;;;5060333;28;20111;-85
2021/09/19 05:37:12;;;;;;;7.10;4.55;;;14.40;99.90;;;;;;5059920;28;20050;-86
2021/09/19 05:39:38;;;;;;;5.82;4.00;;;14.40;99.90;;;;;;5055515;28;20032;-85
2021/09/19 05:42:05;;;;;;;7.38;3.58;;;14.40;99.90;;;;;;5056745;28;20410;-86
2021/09/19 05:44:32;;;;;;;7.07;4.20;;;14.40;99.90;;;;;;5056844;28;20051;-85
2021/09/19 05:47:00;;;;;;;5.63;3.72;;;14.50;99.90;;;;;;5075024;28;20115;-85
2021/09/19 05:49:26;;;;;;;6.55;3.90;;;14.50;99.90;;;;;;5056693;28;20028;-84
2021/09/19 05:51:51;;;;;;;6.80;3.20;;;14.50;99.90;;;;;;5075160;28;20085;-85
2021/09/19 05:54:17;;;;;;;6.45;4.07;;;14.50;99.90;;;;;;5058066;28;20025;-85
2021/09/19 05:56:42;;;;;;;5.22;3.70;;;14.50;99.90;;;;;;5075286;28;20021;-85
2021/09/19 05:59:08;;;;;;;6.55;3.70;;;14.60;99.90;;;;;;5057835;28;20130;-85
2021/09/19 06:01:34;;;;;;;6.72;3.78;;;14.60;99.90;;;;;;5076263;28;20027;-85
2021/09/19 06:03:59;;;;;;;7.22;3.40;;;14.50;99.90;;;;;;5058103;28;20432;-85
2021/09/19 06:06:25;;;;;;;5.18;3.65;;;14.60;99.90;;;;;;5058191;28;20060;-84
2021/09/19 06:08:50;;;;;;;6.20;3.80;;;14.60;99.90;;;;;;5057838;28;20405;-85
2021/09/19 06:11:16;;;;;;;4.97;3.47;;;14.60;99.90;;;;;;5076225;28;20029;-85
2021/09/19 06:13:42;;;;;;;5.15;3.70;;;14.70;99.90;;;;;;5058325;28;20028;-85
2021/09/19 06:16:08;;;;;;;7.28;3.83;;;14.70;99.90;;;;;;5075787;28;20462;-85
2021/09/19 06:18:34;;;;;;;7.25;4.50;;;14.70;99.90;;;;;;5058218;28;20028;-85
2021/09/19 06:21:01;;;;;;;5.90;4.05;;;14.70;99.90;;;;;;5057062;28;20033;-84
2021/09/19 06:23:26;;;;;;;6.25;3.83;;;14.70;99.90;;;;;;5059478;28;20036;-85
2021/09/19 06:25:52;;;;;;;5.18;3.70;;;14.70;99.90;;;;;;5081027;28;20024;-85
2021/09/19 06:28:19;;;;;;;7.55;3.90;;;14.70;99.90;;;;;;5061996;28;20028;-85
2021/09/19 06:30:44;;;;;;;5.50;3.88;;;14.70;99.90;;;;;;5079718;28;20131;-85
2021/09/19 06:33:10;;;;;;;7.28;3.92;;;14.70;99.90;;;;;;5080861;28;20052;-85
2021/09/19 06:35:36;;;;;;;4.93;3.53;;;14.60;99.90;;;;;;5063816;28;20024;-85
2021/09/19 06:38:01;;;;;;;7.43;3.80;;;14.60;99.90;;;;;;5081580;28;20056;-85
2021/09/19 06:40:27;;;;;;;7.18;4.20;;;14.70;99.90;;;;;;5080839;28;20067;-85
2021/09/19 06:42:53;;;;;;;5.03;3.85;;;14.70;99.90;;;;;;5081352;28;20036;-86
2021/09/19 06:45:18;;;;;;;7.00;4.55;;;14.80;99.90;;;;;;5062841;28;20048;-85
2021/09/19 06:47:45;;;;;;;6.25;4.43;;;14.80;99.90;;;;;;5062631;28;20493;-84
2021/09/19 06:50:12;;;;;;;6.20;4.43;;;14.80;99.90;;;;;;5060300;28;20036;-85
2021/09/19 06:52:38;;;;;;;5.97;4.40;;;14.80;99.90;;;;;;5062296;28;20523;-84
2021/09/19 06:55:04;;;;;;;6.70;4.47;;;14.80;99.90;;;;;;5061501;28;20028;-85
2021/09/19 06:57:30;;;;;;;6.72;4.70;;;14.80;99.90;;;;;;5080917;28;20532;-85
2021/09/19 06:59:56;;;;;;;6.18;4.35;;;14.80;99.90;;;;;;5062788;28;20028;-85
2021/09/19 07:02:21;;;;;;;5.88;4.30;;;14.80;99.90;;;;;;5062259;28;20028;-85
2021/09/19 07:04:47;;;;;;;7.10;4.30;;;14.90;99.90;;;;;;5061882;28;20032;-85
2021/09/19 07:07:14;;;;;;;6.55;4.00;;;14.90;99.90;;;;;;5060961;28;20059;-85
2021/09/19 07:09:40;;;;;;;6.53;4.40;;;14.90;99.90;;;;;;5079153;28;20029;-85
2021/09/19 07:12:07;;;;;;;7.28;3.88;;;15.00;99.90;;;;;;5061833;28;20039;-85
2021/09/19 07:14:32;;;;;;;5.75;3.85;;;15.00;99.90;;;;;;5080414;28;20029;-85
2021/09/19 07:16:58;;;;;;;5.50;4.05;;;15.10;99.90;;;;;;5061724;28;20020;-85
2021/09/19 07:19:23;;;;;;;5.93;4.13;;;15.10;99.90;;;;;;5061955;28;20083;-86
2021/09/19 07:21:49;;;;;;;6.25;3.83;;;15.20;99.90;;;;;;5079808;28;20024;-85
2021/09/19 07:24:15;;;;;;;6.40;4.38;;;15.20;99.90;;;;;;5061096;28;20036;-85
2021/09/19 07:26:41;;;;;;;5.38;3.92;;;15.30;99.90;;;;;;5060880;28;20028;-85
2021/09/19 07:29:07;;;;;;;5.45;3.75;;;15.30;99.90;;;;;;5060725;28;20024;-85
2021/09/19 07:31:33;;;;;;;5.85;3.88;;;15.40;99.90;;;;;;5060347;28;20024;-85
2021/09/19 07:33:59;;;;;;;5.13;3.63;;;15.40;99.90;;;;;;5062091;28;20074;-85
2021/09/19 07:36:31;;;;;;;6.57;3.33;;;15.50;99.90;;;;;;5059834;28;20025;-85
2021/09/19 07:39:02;;;;;;;4.90;3.40;;;15.50;99.90;;;;;;5060953;28;20458;-85
2021/09/19 07:41:28;;;;;;;4.35;3.20;;;15.50;99.90;;;;;;5079698;28;20024;-86
2021/09/19 07:43:54;;;;;;;5.38;3.75;;;15.60;99.90;;;;;;5063276;28;20016;-85
2021/09/19 07:46:23;;;;;;;4.53;2.92;;;15.60;99.90;;;;;;5061666;28;20414;-85
2021/09/19 07:48:49;;;;;;;5.32;3.40;;;15.70;99.90;;;;;;5078025;28;20111;-85
2021/09/19 07:51:15;;;;;;;4.85;3.53;;;15.70;99.90;;;;;;5059807;28;20096;-85
2021/09/19 07:53:42;;;;;;;7.03;3.72;;;15.80;99.90;;;;;;5078689;28;20060;-85
2021/09/19 07:56:08;;;;;;;5.15;3.67;;;15.80;99.90;;;;;;5062866;28;20473;-85
2021/09/19 07:58:34;;;;;;;5.43;3.53;;;15.90;99.90;;;;;;5061015;28;20020;-86
2021/09/19 08:00:59;;;;;;;5.38;3.30;;;15.90;99.90;;;;;;5078876;28;20469;-86
2021/09/19 08:03:25;;;;;;;5.70;3.58;;;16.00;99.90;;;;;;5078124;28;20028;-86
2021/09/19 08:05:50;;;;;;;5.50;3.67;;;16.00;99.90;;;;;;5078076;28;20036;-85
2021/09/19 08:08:16;;;;;;;5.20;3.25;;;16.00;99.90;;;;;;5059114;28;20028;-85
2021/09/19 08:10:42;;;;;;;4.47;2.95;;;16.10;99.90;;;;;;5076960;28;20594;-85
2021/09/19 08:13:07;;;;;;;3.33;2.70;;;16.10;99.90;;;;;;5059392;28;20070;-85
2021/09/19 08:15:33;;;;;;;4.53;2.80;;;16.10;99.90;;;;;;5059754;28;20025;-85
2021/09/19 08:17:59;;;;;;;5.72;3.25;;;16.20;99.90;;;;;;5059753;28;20025;-85
2021/09/19 08:20:24;;;;;;;4.10;2.53;;;16.20;99.90;;;;;;5059455;28;20485;-86
2021/09/19 08:22:50;;;;;;;3.90;2.80;;;16.20;99.90;;;;;;5060061;28;20033;-85
2021/09/19 08:25:18;;;;;;;3.65;2.78;;;16.20;99.90;;;;;;5059608;28;20032;-86
2021/09/19 08:27:44;;;;;;;4.18;2.63;;;16.30;99.90;;;;;;5077320;28;20424;-85
2021/09/19 08:30:12;;;;;;;3.72;2.15;;;16.30;99.90;;;;;;5058590;28;20366;-86
2021/09/19 08:32:38;;;;;;;5.57;2.42;;;16.30;99.90;;;;;;5078099;28;20021;-84
2021/09/19 08:35:05;;;;;;;4.15;2.63;;;16.30;99.90;;;;;;5059120;28;20035;-86
2021/09/19 08:37:30;;;;;;;3.30;2.40;;;16.40;99.90;;;;;;5058990;28;20036;-85
2021/09/19 08:39:56;;;;;;;3.95;2.45;;;16.40;99.90;;;;;;5076666;28;20035;-86
2021/09/19 08:42:22;;;;;;;5.05;3.20;;;16.40;99.90;;;;;;5059019;28;20120;-85
2021/09/19 08:44:48;;;;;;;3.35;2.58;;;16.50;99.90;;;;;;5059259;28;20024;-85
2021/09/19 08:47:14;;;;;;;4.70;2.90;;;16.50;99.90;;;;;;5075889;28;20041;-84
2021/09/19 08:49:39;;;;;;;3.97;2.50;;;16.60;99.90;;;;;;5057202;28;20035;-85
2021/09/19 08:52:05;;;;;;;4.75;2.80;;;16.60;99.90;;;;;;5058124;28;20028;-85
2021/09/19 08:54:31;;;;;;;6.18;4.00;;;16.60;99.90;;;;;;5058802;28;20032;-85
2021/09/19 08:56:56;;;;;;;5.95;3.10;;;16.60;99.90;;;;;;5077974;28;20056;-85
2021/09/19 08:59:22;;;;;;;3.55;2.72;;;16.60;99.90;;;;;;5058375;28;20032;-86
2021/09/19 09:02:02;;;;;;;3.72;2.50;;;16.70;99.90;;;;;;5059093;28;20028;-85
2021/09/19 09:04:28;;;;;;;3.88;2.65;;;16.70;99.90;;;;;;5058758;28;20119;-84
2021/09/19 09:06:55;;;;;;;4.13;3.05;;;16.70;99.90;;;;;;5076393;28;20052;-84
2021/09/19 09:09:21;;;;;;;4.60;2.92;;;16.70;99.90;;;;;;5057399;28;20039;-86
2021/09/19 09:12:13;;;;;;;3.63;2.70;;;16.80;99.90;;;;;;5062087;28;20028;-86
2021/09/19 09:14:41;;;;;;;3.67;2.50;;;16.80;99.90;;;;;;5081399;28;20052;-85
2021/09/19 09:17:13;;;;;;;3.95;2.50;;;16.90;99.90;;;;;;5067231;28;20028;-86
2021/09/19 09:19:39;;;;;;;3.97;2.75;;;16.90;99.90;;;;;;5062575;28;20036;-86
2021/09/19 09:22:05;;;;;;;3.65;2.33;;;17.00;99.90;;;;;;5061349;28;20084;-85
2021/09/19 09:24:31;;;;;;;7.05;4.25;;;17.00;99.90;;;;;;5080057;28;20071;-85
2021/09/19 09:26:56;;;;;;;8.65;3.78;;;17.10;99.90;;;;;;5061430;28;20020;-85
2021/09/19 09:29:23;;;;;;;6.43;3.78;;;17.10;99.90;;;;;;5060483;28;20029;-85
2021/09/19 09:31:52;;;;;;;6.82;4.65;;;17.10;99.90;;;;;;5060896;28;20556;-85
2021/09/19 09:34:23;;;;;;;5.30;3.75;;;17.20;99.90;;;;;;5080199;28;20035;-85
2021/09/19 09:36:59;;;;;;;6.78;3.78;;;17.20;99.90;;;;;;5079566;28;20477;-85
2021/09/19 09:39:29;;;;;;;5.05;3.60;;;17.20;99.90;;;;;;5060540;28;20024;-85
2021/09/19 09:42:18;;;;;;;7.70;4.10;;;17.20;99.90;;;;;;5076562;28;20103;-85
2021/09/19 09:44:46;;;;;;;6.25;3.80;;;17.30;99.90;;;;;;5076505;28;20025;-85
2021/09/19 09:47:24;;;;;;;4.53;3.30;;;17.30;99.90;;;;;;5058131;28;20412;-86
2021/09/19 09:49:50;;;;;;;4.60;3.35;;;17.30;99.90;;;;;;5057969;28;20028;-86
2021/09/19 09:52:24;;;;;;;5.65;3.75;;;17.40;99.90;;;;;;5058283;28;20047;-85
2021/09/19 09:54:57;;;;;;;5.68;3.60;;;17.40;99.90;;;;;;5058265;28;20437;-85
2021/09/19 09:57:35;;;;;;;5.32;3.42;;;17.40;99.90;;;;;;5057849;28;20016;-86
2021/09/19 10:00:16;;;;;;;4.57;3.50;;;17.40;99.90;;;;;;5057663;28;20416;-85
2021/09/19 10:02:44;;;;;;;6.25;3.60;;;17.40;99.90;;;;;;5056988;28;20013;-85
2021/09/19 10:05:12;;;;;;;5.38;3.67;;;17.50;99.90;;;;;;5057674;28;20111;-85
2021/09/19 10:07:39;;;;;;;4.40;3.20;;;17.50;99.90;;;;;;5058166;28;20032;-86
2021/09/19 10:10:10;;;;;;;3.88;2.92;;;17.50;99.90;;;;;;5075471;28;20033;-86
2021/09/19 10:12:37;;;;;;;5.20;3.28;;;17.50;99.90;;;;;;5074161;28;20025;-85
2021/09/19 10:15:05;;;;;;;4.50;2.90;;;17.60;99.90;;;;;;5056534;28;20094;-86
2021/09/19 10:17:31;;;;;;;4.10;2.95;;;17.60;99.90;;;;;;5056109;28;20028;-85
2021/09/19 10:19:58;;;;;;;4.95;3.13;;;17.60;99.90;;;;;;5073708;28;20024;-85
2021/09/19 10:22:31;;;;;;;4.00;2.92;;;17.60;99.90;;;;;;5074084;28;20063;-85
2021/09/19 10:24:57;;;;;;;5.30;3.00;;;17.60;99.90;;;;;;5055509;28;20028;-86
2021/09/19 10:27:31;;;;;;;5.03;2.92;;;17.70;99.90;;;;;;5055926;28;20397;-85
2021/09/19 10:30:10;;;;;;;6.70;3.03;;;17.70;99.90;;;;;;5073531;28;20385;-86
2021/09/19 10:32:39;;;;;;;4.30;3.33;;;17.70;99.90;;;;;;5055934;28;20024;-86
2021/09/19 10:35:18;;;;;;;5.90;3.95;;;17.80;99.90;;;;;;5055929;28;20028;-86
2021/09/19 10:38:03;;;;;;;6.78;4.63;;;17.80;99.90;;;;;;5055808;28;20607;-86
2021/09/19 10:40:42;;;;;;;6.90;4.63;;;17.80;99.90;;;;;;5055288;28;20166;-86
2021/09/19 10:43:22;;;;;;;4.80;3.50;;;17.80;99.90;;;;;;5055677;28;20043;-86
2021/09/19 10:45:52;;;;;;;5.22;3.38;;;17.90;99.90;;;;;;5055799;28;20078;-85
2021/09/19 10:48:27;;;;;;;6.28;4.18;;;18.00;99.90;;;;;;5055391;28;20040;-86
2021/09/19 10:51:04;;;;;;;5.40;3.65;;;18.00;99.90;;;;;;5055170;28;20036;-86
2021/09/19 10:53:30;;;;;;;6.13;3.88;;;18.00;99.90;;;;;;5055677;28;20459;-86
2021/09/19 10:56:01;;;;;;;5.40;4.07;;;18.10;99.90;;;;;;5055771;28;20423;-86
2021/09/19 10:58:29;;;;;;;4.72;3.60;;;18.10;99.90;;;;;;5077095;28;20021;-85
2021/09/19 11:01:10;;;;;;;5.00;3.83;;;18.10;99.90;;;;;;5076134;28;20151;-85
2021/09/19 11:03:37;;;;;;;6.88;3.97;;;18.10;99.90;;;;;;5055358;28;20039;-86
2021/09/19 11:06:02;;;;;;;5.80;3.88;;;18.20;99.90;;;;;;5055428;28;20146;-86
2021/09/19 11:08:40;;;;;;;5.43;3.60;;;18.20;99.90;;;;;;5055201;28;20608;-86
2021/09/19 11:11:10;;;;;;;4.65;3.40;;;18.20;99.90;;;;;;5054597;28;20032;-85
2021/09/19 11:13:42;;;;;;;5.63;4.10;;;18.30;99.90;;;;;;5055227;28;20024;-86
2021/09/19 11:16:15;;;;;;;9.05;4.70;;;18.30;99.90;;;;;;5055106;28;20021;-86
2021/09/19 11:18:48;;;;;;;6.70;5.05;;;18.30;99.90;;;;;;5055024;28;20028;-86
2021/09/19 11:21:20;;;;;;;7.00;4.63;;;18.40;99.90;;;;;;5055431;28;20047;-86
2021/09/19 11:23:46;;;;;;;6.78;4.13;;;18.40;99.90;;;;;;5055407;28;20592;-86
2021/09/19 11:26:17;;;;;;;6.03;4.07;;;18.40;99.90;;;;;;5055047;28;20620;-86
2021/09/19 11:28:44;;;;;;;5.60;4.03;;;18.40;99.90;;;;;;5054786;28;20054;-85
2021/09/19 11:31:10;;;;;;;7.00;4.40;;;18.40;99.90;;;;;;5054322;28;20024;-85
2021/09/19 11:33:37;;;;;;;5.97;4.20;;;18.50;99.90;;;;;;5054912;28;20075;-86
2021/09/19 11:36:07;;;;;;;7.10;4.68;;;18.50;99.90;;;;;;5072021;28;20309;-86
2021/09/19 11:38:41;;;;;;;5.40;4.20;;;18.50;99.90;;;;;;5072271;28;20095;-86
2021/09/19 11:41:07;;;;;;;6.40;4.82;;;18.50;99.90;;;;;;5054136;28;20123;-86
2021/09/19 11:43:34;;;;;;;6.78;4.85;;;18.60;99.90;;;;;;5054611;28;20028;-86
2021/09/19 11:46:01;;;;;;;6.43;4.78;;;18.50;99.90;;;;;;5054691;28;20588;-85
2021/09/19 11:48:29;;;;;;;7.63;4.78;;;18.60;99.90;;;;;;5074313;28;20039;-84
2021/09/19 11:50:54;;;;;;;5.47;4.05;;;18.60;99.90;;;;;;5056567;28;20031;-85
2021/09/19 11:53:20;;;;;;;6.68;4.80;;;18.60;99.90;;;;;;5056803;28;20431;-85
2021/09/19 11:55:46;;;;;;;6.97;5.10;;;18.60;99.90;;;;;;5057731;28;20464;-86
2021/09/19 11:58:19;;;;;;;6.18;4.32;;;18.60;99.90;;;;;;5057385;28;20085;-85
2021/09/19 12:00:52;;;;;;;5.45;4.10;;;18.60;99.80;;;;;;5074156;28;20021;-84
2021/09/19 12:03:18;;;;;;;5.55;4.20;;;18.60;99.50;;;;;;5056975;28;20491;-84
2021/09/19 12:05:48;;;;;;;5.15;4.10;;;18.60;99.20;;;;;;5057080;28;20032;-85
2021/09/19 12:08:14;;;;;;;6.50;4.95;;;18.60;99.10;;;;;;5056684;28;20020;-85
2021/09/19 12:10:40;;;;;;;6.32;4.90;;;18.60;99.30;;;;;;5056743;28;20021;-85
2021/09/19 12:13:19;;;;;;;6.10;4.80;;;18.50;99.40;;;;;;5057149;28;20021;-85
2021/09/19 12:16:00;;;;;;;6.85;5.22;;;18.50;99.50;;;;;;5057587;28;20169;-85
2021/09/19 12:18:27;;;;;;;6.75;4.90;;;18.50;99.50;;;;;;5057774;28;20020;-85
2021/09/19 12:21:07;;;;;;;5.80;4.53;;;18.50;99.40;;;;;;5075587;28;20036;-85
2021/09/19 12:23:46;;;;;;;6.22;4.80;;;18.50;99.20;;;;;;5057780;28;20020;-85
2021/09/19 12:26:27;;;;;;;4.70;3.60;;;18.50;99.30;;;;;;5055446;28;20117;-84
2021/09/19 12:28:57;;;;;;;5.22;3.85;;;18.50;98.20;;;;;;5072988;28;20035;-88
2021/09/19 12:31:44;;;;;;;5.40;4.18;;;18.50;98.20;;;;;;5054492;28;20473;-85
2021/09/19 12:34:11;;;;;;;5.45;3.75;;;18.40;97.80;;;;;;5074440;28;20021;-85
2021/09/19 12:36:51;;;;;;;5.72;3.50;;;18.40;97.70;;;;;;5055816;28;20021;-85
2021/09/19 12:39:26;;;;;;;5.43;3.55;;;18.40;97.80;;;;;;5055280;28;20020;-85
2021/09/19 12:41:58;;;;;;;5.60;3.70;;;18.40;97.90;;;;;;5074597;28;20374;-85
2021/09/19 12:44:29;;;;;;;4.93;3.63;;;18.40;97.90;;;;;;5056370;28;20020;-85
2021/09/19 12:46:58;;;;;;;5.35;3.63;;;18.50;97.70;;;;;;5055300;28;20436;-85
2021/09/19 12:49:31;;;;;;;4.97;3.65;;;18.50;97.60;;;;;;5076839;28;20418;-85